createdAt,value
2018-05-21T00:04:51.383Z,7.97
2018-05-21T00:09:55.198Z,9.13
2018-05-21T00:14:58.822Z,8.82
2018-05-21T00:20:02.440Z,7.85
2018-05-21T00:25:06.248Z,7.87
2018-05-21T00:30:09.887Z,9.07
2018-05-21T00:35:13.132Z,7.97
2018-05-21T00:40:16.395Z,7.72
2018-05-21T00:45:20.032Z,8.00
2018-05-21T00:50:23.297Z,9.13
2018-05-21T00:55:33.977Z,11.63
2018-05-21T01:00:37.698Z,7.43
2018-05-21T01:05:41.354Z,8.05
2018-05-21T01:10:44.613Z,9.23
2018-05-21T01:15:47.862Z,7.25
2018-05-21T01:20:51.247Z,9.30
2018-05-21T01:25:54.462Z,6.72
2018-05-21T01:30:57.690Z,8.30
2018-05-21T01:36:00.960Z,8.48
2018-05-21T01:41:05.697Z,8.13
2018-05-21T01:46:09.333Z,6.87
2018-05-21T01:51:12.565Z,7.28
2018-05-21T01:56:15.795Z,6.35
2018-05-21T02:01:19.035Z,7.37
2018-05-21T02:06:22.771Z,8.07
2018-05-21T02:11:25.996Z,6.80
2018-05-21T02:16:29.229Z,6.97
2018-05-21T02:21:32.455Z,7.95
2018-05-21T02:26:35.692Z,7.18
2018-05-21T02:31:38.935Z,6.73
2018-05-21T02:36:42.150Z,6.72
2018-05-21T02:41:45.409Z,6.90
2018-05-21T02:46:48.634Z,7.43
2018-05-21T02:51:51.860Z,7.00
2018-05-21T02:56:55.101Z,6.63
2018-05-21T03:01:58.835Z,6.00
2018-05-21T03:07:02.445Z,8.33
2018-05-21T03:12:06.766Z,7.50
2018-05-21T03:17:10.444Z,7.17
2018-05-21T03:22:13.889Z,6.50
2018-05-21T03:27:17.121Z,7.73
2018-05-21T03:32:20.353Z,8.20
2018-05-21T03:37:23.578Z,6.60
2018-05-21T03:42:26.790Z,7.00
2018-05-21T03:47:30.021Z,8.27
2018-05-21T03:52:33.636Z,9.43
2018-05-21T03:57:37.266Z,10.67
2018-05-21T04:08:16.282Z,9.53
2018-05-21T04:13:19.526Z,9.70
2018-05-21T04:18:23.170Z,10.00
2018-05-21T04:23:26.424Z,7.97
2018-05-21T04:28:29.658Z,10.63
2018-05-21T04:33:33.280Z,8.73
2018-05-21T04:38:36.914Z,9.02
2018-05-21T04:43:40.169Z,8.48
2018-05-21T04:48:43.415Z,11.90
2018-05-21T04:53:46.651Z,10.65
2018-05-21T04:58:49.910Z,11.40
2018-05-21T05:03:53.540Z,12.70
2018-05-21T05:08:57.252Z,9.95
2018-05-21T05:14:00.884Z,11.82
2018-05-21T05:19:04.251Z,13.05
2018-05-21T05:24:07.497Z,12.10
2018-05-21T05:29:10.782Z,13.27
2018-05-21T05:34:14.550Z,13.43
2018-05-21T05:39:17.776Z,12.48
2018-05-21T05:44:21.006Z,11.90
2018-05-21T05:49:24.661Z,11.18
2018-05-21T05:54:27.902Z,11.27
2018-05-21T05:59:31.341Z,10.48
2018-05-21T06:04:34.986Z,10.30
2018-05-21T06:09:38.282Z,10.30
2018-05-21T06:14:41.915Z,8.80
2018-05-21T06:19:45.288Z,9.20
2018-05-21T06:24:48.908Z,10.93
2018-05-21T06:29:52.514Z,9.45
2018-05-21T06:34:55.739Z,9.15
2018-05-21T06:39:59.419Z,11.30
2018-05-21T06:45:02.753Z,8.93
2018-05-21T06:50:06.477Z,8.57
2018-05-21T06:55:10.108Z,10.20
2018-05-21T07:00:13.481Z,10.68
2018-05-21T07:05:16.721Z,10.02
2018-05-21T07:10:19.941Z,8.27
2018-05-21T07:15:23.407Z,11.05
2018-05-21T07:20:27.438Z,11.43
2018-05-21T07:25:31.154Z,9.02
2018-05-21T07:30:34.875Z,8.65
2018-05-21T07:35:38.515Z,9.60
2018-05-21T07:40:41.801Z,9.65
2018-05-21T07:45:45.438Z,9.40
2018-05-21T07:50:48.733Z,10.73
2018-05-21T07:55:52.428Z,8.77
2018-05-21T08:00:56.069Z,10.90
2018-05-21T08:05:59.341Z,10.05
2018-05-21T08:11:02.658Z,10.90
2018-05-21T08:16:06.393Z,9.57
2018-05-21T08:21:10.060Z,11.90
2018-05-21T08:26:13.438Z,9.70
2018-05-21T08:31:16.709Z,8.20
2018-05-21T08:36:20.009Z,8.52
2018-05-21T08:41:23.233Z,8.50
2018-05-21T08:46:26.903Z,8.02
2018-05-21T08:51:30.272Z,7.97
2018-05-21T08:56:33.988Z,8.07
2018-05-21T09:01:37.411Z,9.32
2018-05-21T09:06:40.698Z,9.80
2018-05-21T09:11:44.428Z,7.90
2018-05-21T09:16:47.946Z,9.75
2018-05-21T09:21:51.167Z,9.60
2018-05-21T09:26:54.987Z,10.63
2018-05-21T09:31:58.266Z,8.38
2018-05-21T09:37:02.925Z,10.50
2018-05-21T09:42:06.255Z,8.23
2018-05-21T09:47:09.846Z,8.82
2018-05-21T09:52:13.128Z,10.45
2018-05-21T09:57:16.771Z,10.20
2018-05-21T10:02:20.139Z,10.82
2018-05-21T10:07:23.373Z,12.25
2018-05-21T10:12:26.671Z,10.02
2018-05-21T10:17:30.001Z,8.20
2018-05-21T10:22:34.733Z,10.02
2018-05-21T10:27:38.019Z,8.85
2018-05-21T10:32:42.546Z,8.25
2018-05-21T10:37:45.911Z,10.50
2018-05-21T10:42:49.164Z,9.93
2018-05-21T10:47:53.473Z,6.95
2018-05-21T10:52:56.835Z,8.00
2018-05-21T10:58:00.085Z,8.05
2018-05-21T11:03:03.358Z,7.12
2018-05-21T11:08:06.781Z,6.75
2018-05-21T11:13:15.032Z,8.18
2018-05-21T11:18:18.358Z,6.05
2018-05-21T11:23:22.102Z,5.80
2018-05-21T11:28:25.791Z,7.47
2018-05-21T11:33:29.509Z,6.03
2018-05-21T11:38:33.128Z,8.32
2018-05-21T11:43:36.779Z,5.32
2018-05-21T11:48:40.031Z,7.60
2018-05-21T11:53:45.708Z,9.73
2018-05-21T11:58:48.967Z,10.23
2018-05-21T12:03:52.202Z,9.95
2018-05-21T12:08:55.650Z,6.70
2018-05-21T12:13:59.352Z,4.95
2018-05-21T12:19:03.167Z,5.12
2018-05-21T12:24:08.127Z,7.05
2018-05-21T12:29:11.834Z,5.18
2018-05-21T12:34:15.549Z,5.57
2018-05-21T12:39:19.265Z,5.18
2018-05-21T12:44:22.907Z,4.22
2018-05-21T12:49:26.188Z,3.35
2018-05-21T12:54:29.452Z,3.62
2018-05-21T12:59:32.744Z,3.17
2018-05-21T13:04:36.494Z,3.08
2018-05-21T13:09:40.200Z,3.08
2018-05-21T13:14:43.434Z,3.03
2018-05-21T13:19:46.673Z,3.25
2018-05-21T13:24:49.968Z,2.58
2018-05-21T13:29:53.263Z,2.28
2018-05-21T13:35:00.742Z,1.92
2018-05-21T13:40:04.019Z,2.30
2018-05-21T13:45:07.406Z,3.10
2018-05-21T13:50:10.701Z,2.20
2018-05-21T13:55:14.410Z,2.75
2018-05-21T14:00:18.230Z,3.10
2018-05-21T14:05:21.872Z,2.42
2018-05-21T14:10:25.255Z,2.97
2018-05-21T14:15:28.918Z,2.30
2018-05-21T14:20:32.909Z,2.20
2018-05-21T14:25:36.541Z,2.28
2018-05-21T14:30:39.916Z,2.08
2018-05-21T14:35:43.157Z,2.08
2018-05-21T14:40:46.520Z,2.25
2018-05-21T14:45:49.749Z,1.90
2018-05-21T14:50:54.272Z,1.92
2018-05-21T14:55:57.527Z,2.55
2018-05-21T15:01:01.118Z,2.03
2018-05-21T15:06:04.372Z,2.12
2018-05-21T15:11:07.600Z,2.65
2018-05-21T15:16:11.010Z,2.20
2018-05-21T15:21:14.201Z,2.40
2018-05-21T15:26:17.553Z,1.75
2018-05-21T15:31:20.776Z,2.12
2018-05-21T15:36:24.062Z,2.08
2018-05-21T15:41:27.777Z,2.60
2018-05-21T15:46:31.446Z,2.12
2018-05-21T15:51:34.692Z,2.20
2018-05-21T15:56:38.390Z,2.65
2018-05-21T16:01:41.722Z,3.20
2018-05-21T16:06:45.377Z,2.22
2018-05-21T16:11:48.626Z,1.62
2018-05-21T16:16:51.855Z,1.67
2018-05-21T16:21:55.508Z,2.05
2018-05-21T16:26:58.760Z,1.90
2018-05-21T16:32:02.423Z,1.50
2018-05-21T16:37:05.672Z,1.62
2018-05-21T16:42:08.917Z,3.17
2018-05-21T16:47:12.951Z,1.60
2018-05-21T16:52:16.175Z,2.35
2018-05-21T16:57:19.445Z,4.82
2018-05-21T17:02:22.813Z,2.28
2018-05-21T17:07:26.082Z,2.00
2018-05-21T17:12:29.324Z,2.58
2018-05-21T17:17:32.541Z,2.78
2018-05-21T17:22:36.195Z,2.10
2018-05-21T17:27:39.418Z,2.67
2018-05-21T17:32:42.643Z,2.37
2018-05-21T17:37:45.894Z,1.90
2018-05-21T17:42:49.516Z,2.78
2018-05-21T17:47:52.810Z,2.80
2018-05-21T17:52:56.451Z,2.80
2018-05-21T17:57:59.705Z,1.80
2018-05-21T18:03:03.009Z,2.90
2018-05-21T18:08:06.229Z,2.33
2018-05-21T18:13:09.472Z,2.55
2018-05-21T18:18:12.730Z,2.50
2018-05-21T18:23:16.462Z,1.83
2018-05-21T18:28:19.696Z,4.80
2018-05-21T18:33:23.808Z,2.25
2018-05-21T18:38:27.441Z,2.87
2018-05-21T18:43:30.716Z,1.90
2018-05-21T18:48:33.965Z,2.28
2018-05-21T18:53:37.188Z,1.77
2018-05-21T18:58:40.425Z,3.67
2018-05-21T19:03:43.654Z,1.67
2018-05-21T19:08:46.899Z,2.92
2018-05-21T19:13:50.106Z,1.85
2018-05-21T19:18:53.485Z,1.65
2018-05-21T19:23:56.727Z,2.10
2018-05-21T19:28:59.956Z,1.50
2018-05-21T19:34:03.189Z,2.08
2018-05-21T19:39:06.826Z,2.15
2018-05-21T19:44:12.102Z,2.58
2018-05-21T19:49:15.377Z,2.20
2018-05-21T19:54:18.605Z,2.65
2018-05-21T19:59:23.022Z,3.60
2018-05-21T20:04:26.255Z,1.15
2018-05-21T20:09:29.481Z,1.60
2018-05-21T20:14:32.726Z,1.70
2018-05-21T20:19:36.377Z,3.22
2018-05-21T20:24:39.646Z,2.05
2018-05-21T20:29:43.333Z,2.62
2018-05-21T20:34:46.658Z,2.08
2018-05-21T20:39:49.959Z,2.20
2018-05-21T20:44:53.603Z,3.33
2018-05-21T20:49:56.990Z,2.30
2018-05-21T20:55:00.617Z,1.83
2018-05-21T21:00:04.280Z,1.60
2018-05-21T21:05:07.732Z,1.92
2018-05-21T21:10:12.266Z,2.22
2018-05-21T21:15:17.209Z,1.70
2018-05-21T21:20:21.145Z,2.53
2018-05-21T21:25:25.087Z,2.90
2018-05-21T21:30:29.592Z,2.40
2018-05-21T21:35:34.927Z,2.25
2018-05-21T21:40:38.470Z,3.12
2018-05-21T21:45:43.539Z,2.70
2018-05-21T21:50:46.848Z,2.20
2018-05-21T21:55:50.339Z,2.83
2018-05-21T22:00:54.212Z,2.92
2018-05-21T22:05:57.865Z,2.60
2018-05-21T22:11:01.318Z,2.47
2018-05-21T22:16:04.548Z,3.47
2018-05-21T22:21:08.024Z,2.80
2018-05-21T22:26:11.310Z,3.25
2018-05-21T22:31:16.107Z,3.50
2018-05-21T22:36:22.553Z,6.30
2018-05-21T22:41:27.088Z,3.00
2018-05-21T22:46:32.293Z,5.97
2018-05-21T22:51:36.334Z,4.62
2018-05-21T22:56:42.664Z,4.35
2018-05-21T23:01:47.738Z,3.10
2018-05-21T23:06:52.932Z,3.72
2018-05-21T23:11:56.559Z,5.15
2018-05-21T23:17:00.438Z,2.75
2018-05-21T23:22:03.963Z,2.83
2018-05-21T23:27:07.219Z,3.20
2018-05-21T23:32:10.512Z,2.75
2018-05-21T23:37:15.005Z,3.12
2018-05-21T23:42:18.310Z,4.05
2018-05-21T23:47:22.271Z,3.28
2018-05-21T23:52:26.761Z,3.25
2018-05-21T23:57:30.003Z,3.67
